Time,TemperatureF,DewpointF,PressureIn,WindDirection,WindDirectionDegrees,WindSpeedMPH,WindSpeedGustMPH,Humidity,HourlyPrecipIn,Conditions,Clouds,dailyrainin,SolarRadiationWatts/m^2,SoftwareType,DateUTC
2013-05-26 00:02:00,74.0,68.0,30.02,ESE,116,6.0,8.0,82,0.00,,,0.01,0.000000,,2013-05-26 10:02:00,
2013-05-26 00:12:00,74.0,68.0,30.02,ESE,116,6.0,8.0,82,0.00,,,0.01,0.000000,,2013-05-26 10:12:00,
2013-05-26 00:33:00,73.0,67.0,30.01,SE,126,4.0,7.0,82,0.00,,,0.01,0.000000,,2013-05-26 10:33:00,
2013-05-26 00:42:00,73.0,67.0,30.01,SE,126,4.0,7.0,82,0.00,,,0.01,0.000000,,2013-05-26 10:42:00,
2013-05-26 00:52:00,73.0,67.0,30.01,SE,126,4.0,7.0,82,0.00,,,0.01,0.000000,,2013-05-26 10:52:00,
2013-05-26 01:02:00,73.0,67.0,30.01,SE,126,4.0,7.0,82,0.00,,,0.01,0.000000,,2013-05-26 11:02:00,
2013-05-26 01:11:00,73.0,67.0,30.01,SE,126,4.0,7.0,82,0.00,,,0.01,0.000000,,2013-05-26 11:11:00,
2013-05-26 01:32:00,74.0,70.0,30.01,SSE,161,6.0,9.0,87,0.00,,,0.01,0.000000,,2013-05-26 11:32:00,
2013-05-26 01:42:00,74.0,70.0,30.01,SSE,161,6.0,9.0,87,0.00,,,0.01,0.000000,,2013-05-26 11:42:00,
2013-05-26 01:52:00,74.0,70.0,30.01,SSE,161,6.0,9.0,87,0.00,,,0.01,0.000000,,2013-05-26 11:52:00,
2013-05-26 02:01:00,74.0,70.0,30.01,SSE,161,6.0,9.0,87,0.00,,,0.01,0.000000,,2013-05-26 12:01:00,
2013-05-26 02:11:00,74.0,70.0,30.01,SSE,161,6.0,9.0,87,0.00,,,0.01,0.000000,,2013-05-26 12:11:00,
2013-05-26 02:32:00,73.0,70.0,29.98,ESE,112,4.0,7.0,89,0.00,,,0.01,0.000000,,2013-05-26 12:32:00,
2013-05-26 02:42:00,73.0,70.0,29.98,ESE,112,4.0,7.0,89,0.00,,,0.01,0.000000,,2013-05-26 12:42:00,
2013-05-26 02:52:00,73.0,70.0,29.98,ESE,112,4.0,7.0,89,0.00,,,0.01,0.000000,,2013-05-26 12:52:00,
2013-05-26 03:02:00,73.0,70.0,29.98,ESE,112,4.0,7.0,89,0.00,,,0.01,0.000000,,2013-05-26 13:02:00,
2013-05-26 03:11:00,73.0,70.0,29.98,ESE,112,4.0,7.0,89,0.00,,,0.01,0.000000,,2013-05-26 13:11:00,
2013-05-26 03:32:00,73.0,69.0,29.98,NNE,27,3.0,6.0,86,0.00,,,0.01,0.000000,,2013-05-26 13:32:00,
2013-05-26 03:42:00,73.0,69.0,29.98,NNE,27,3.0,6.0,86,0.00,,,0.01,0.000000,,2013-05-26 13:42:00,
2013-05-26 03:52:00,73.0,69.0,29.98,NNE,27,3.0,6.0,86,0.00,,,0.01,0.000000,,2013-05-26 13:52:00,
2013-05-26 04:01:00,73.0,69.0,29.98,NNE,27,3.0,6.0,86,0.00,,,0.01,0.000000,,2013-05-26 14:01:00,
2013-05-26 04:11:00,73.0,69.0,29.98,NNE,27,3.0,6.0,86,0.00,,,0.01,0.000000,,2013-05-26 14:11:00,
2013-05-26 04:32:00,73.0,68.0,29.98,West,273,2.0,6.0,83,0.00,,,0.01,0.000000,,2013-05-26 14:32:00,
2013-05-26 04:42:00,73.0,68.0,29.98,West,273,2.0,6.0,83,0.00,,,0.01,0.000000,,2013-05-26 14:42:00,
2013-05-26 04:52:00,73.0,68.0,29.98,West,273,2.0,6.0,83,0.00,,,0.01,0.000000,,2013-05-26 14:52:00,
2013-05-26 05:01:00,73.0,68.0,29.98,West,273,2.0,6.0,83,0.00,,,0.01,0.000000,,2013-05-26 15:01:00,
2013-05-26 05:11:00,73.0,68.0,29.98,West,273,2.0,6.0,83,0.00,,,0.01,0.000000,,2013-05-26 15:11:00,
2013-05-26 05:33:00,73.0,69.0,29.99,East,81,1.0,3.0,86,0.00,,,0.01,0.000000,,2013-05-26 15:33:00,
2013-05-26 05:43:00,73.0,69.0,29.99,East,81,1.0,3.0,86,0.00,,,0.01,0.000000,,2013-05-26 15:43:00,
2013-05-26 05:53:00,73.0,69.0,29.99,East,81,1.0,3.0,86,0.00,,,0.01,0.000000,,2013-05-26 15:53:00,
2013-05-26 06:03:00,73.0,69.0,29.99,East,81,1.0,3.0,86,0.00,,,0.01,0.000000,,2013-05-26 16:03:00,
2013-05-26 06:12:00,73.0,69.0,29.99,East,81,1.0,3.0,86,0.00,,,0.01,0.000000,,2013-05-26 16:12:00,
2013-05-26 06:33:00,74.0,69.0,30.01,SW,233,6.0,12.0,85,0.00,,,0.01,5.000000,,2013-05-26 16:33:00,
2013-05-26 06:42:00,74.0,69.0,30.01,SW,233,6.0,12.0,85,0.00,,,0.01,5.000000,,2013-05-26 16:42:00,
2013-05-26 06:53:00,74.0,69.0,30.01,SW,233,6.0,12.0,85,0.00,,,0.01,5.000000,,2013-05-26 16:53:00,
2013-05-26 07:02:00,74.0,69.0,30.01,SW,233,6.0,12.0,85,0.00,,,0.01,5.000000,,2013-05-26 17:02:00,
2013-05-26 07:11:00,74.0,69.0,30.01,SW,233,6.0,12.0,85,0.00,,,0.01,5.000000,,2013-05-26 17:11:00,
2013-05-26 07:32:00,74.0,71.0,30.02,ESE,107,4.0,6.0,89,0.00,,,0.01,63.000000,,2013-05-26 17:32:00,
2013-05-26 07:42:00,74.0,71.0,30.02,ESE,107,4.0,6.0,89,0.00,,,0.01,63.000000,,2013-05-26 17:42:00,
2013-05-26 07:52:00,74.0,71.0,30.02,ESE,107,4.0,6.0,89,0.00,,,0.01,63.000000,,2013-05-26 17:52:00,
2013-05-26 08:01:00,74.0,71.0,30.02,ESE,107,4.0,6.0,89,0.00,,,0.01,63.000000,,2013-05-26 18:01:00,
2013-05-26 08:12:00,74.0,71.0,30.02,ESE,107,4.0,6.0,89,0.00,,,0.01,63.000000,,2013-05-26 18:12:00,
2013-05-26 08:32:00,78.0,70.0,30.02,East,99,3.0,6.0,77,0.00,,,0.01,150.000000,,2013-05-26 18:32:00,
2013-05-26 08:42:00,78.0,70.0,30.02,East,99,3.0,6.0,77,0.00,,,0.01,150.000000,,2013-05-26 18:42:00,
2013-05-26 08:52:00,78.0,70.0,30.02,East,99,3.0,6.0,77,0.00,,,0.01,150.000000,,2013-05-26 18:52:00,
2013-05-26 09:01:00,78.0,70.0,30.02,East,99,3.0,6.0,77,0.00,,,0.01,150.000000,,2013-05-26 19:01:00,
2013-05-26 09:11:00,78.0,70.0,30.02,East,99,3.0,6.0,77,0.00,,,0.01,150.000000,,2013-05-26 19:11:00,
2013-05-26 09:32:00,80.0,68.0,30.04,SSW,207,3.0,6.0,66,0.00,,,0.01,247.000000,,2013-05-26 19:32:00,
2013-05-26 09:42:00,80.0,68.0,30.04,SSW,207,3.0,6.0,66,0.00,,,0.01,247.000000,,2013-05-26 19:42:00,
2013-05-26 09:52:00,80.0,68.0,30.04,SSW,207,3.0,6.0,66,0.00,,,0.01,247.000000,,2013-05-26 19:52:00,
2013-05-26 10:02:00,80.0,68.0,30.04,SSW,207,3.0,6.0,66,0.00,,,0.01,247.000000,,2013-05-26 20:02:00,
2013-05-26 10:11:00,80.0,68.0,30.04,SSW,207,3.0,6.0,66,0.00,,,0.01,247.000000,,2013-05-26 20:11:00,
2013-05-26 10:32:00,81.0,69.0,30.03,South,178,5.0,10.0,68,0.00,,,0.01,411.000000,,2013-05-26 20:32:00,
2013-05-26 10:42:00,81.0,69.0,30.03,South,178,5.0,10.0,68,0.00,,,0.01,411.000000,,2013-05-26 20:42:00,
2013-05-26 10:52:00,81.0,69.0,30.03,South,178,5.0,10.0,68,0.00,,,0.01,411.000000,,2013-05-26 20:52:00,
2013-05-26 11:01:00,81.0,69.0,30.03,South,178,5.0,10.0,68,0.00,,,0.01,411.000000,,2013-05-26 21:01:00,
2013-05-26 11:11:00,81.0,69.0,30.03,South,178,5.0,10.0,68,0.00,,,0.01,411.000000,,2013-05-26 21:11:00,
2013-05-26 11:43:00,83.0,70.0,30.02,SW,234,8.0,12.0,65,0.00,,,0.01,793.000000,,2013-05-26 21:43:00,
2013-05-26 11:53:00,83.0,70.0,30.02,SW,234,8.0,12.0,65,0.00,,,0.01,793.000000,,2013-05-26 21:53:00,
2013-05-26 12:02:00,83.0,70.0,30.02,SW,234,8.0,12.0,65,0.00,,,0.01,793.000000,,2013-05-26 22:02:00,
2013-05-26 12:12:00,83.0,70.0,30.02,SW,234,8.0,12.0,65,0.00,,,0.01,793.000000,,2013-05-26 22:12:00,
2013-05-26 12:33:00,82.0,69.0,30.01,SW,220,8.0,14.0,65,0.00,,,0.01,784.000000,,2013-05-26 22:33:00,
2013-05-26 12:42:00,82.0,69.0,30.01,SW,220,8.0,14.0,65,0.00,,,0.01,784.000000,,2013-05-26 22:42:00,
2013-05-26 12:53:00,82.0,69.0,30.01,SW,220,8.0,14.0,65,0.00,,,0.01,784.000000,,2013-05-26 22:53:00,
2013-05-26 13:02:00,82.0,69.0,30.01,SW,220,8.0,14.0,65,0.00,,,0.01,784.000000,,2013-05-26 23:02:00,
2013-05-26 13:11:00,82.0,69.0,30.01,SW,220,8.0,14.0,65,0.00,,,0.01,784.000000,,2013-05-26 23:11:00,
2013-05-26 13:32:00,83.0,70.0,29.99,SSE,154,8.0,14.0,65,0.00,,,0.01,461.000000,,2013-05-26 23:32:00,
2013-05-26 13:43:00,83.0,70.0,29.99,SSE,154,8.0,14.0,65,0.00,,,0.01,461.000000,,2013-05-26 23:43:00,
2013-05-26 13:52:00,83.0,70.0,29.99,SSE,154,8.0,14.0,65,0.00,,,0.01,461.000000,,2013-05-26 23:52:00,
2013-05-26 14:02:00,83.0,70.0,29.99,SSE,154,8.0,14.0,65,0.00,,,0.01,461.000000,,2013-05-27 00:02:00,
2013-05-26 14:11:00,83.0,70.0,29.99,SSE,154,8.0,14.0,65,0.00,,,0.01,461.000000,,2013-05-27 00:11:00,
2013-05-26 15:32:00,84.0,70.0,29.97,SW,220,9.0,13.0,64,-99.99,,,0.01,616.000000,,2013-05-27 01:32:00,
2013-05-26 15:42:00,84.0,70.0,29.97,SW,220,9.0,13.0,64,-99.99,,,0.01,616.000000,,2013-05-27 01:42:00,
2013-05-26 15:52:00,84.0,70.0,29.97,SW,220,9.0,13.0,64,-99.99,,,0.01,616.000000,,2013-05-27 01:52:00,
2013-05-26 16:01:00,84.0,70.0,29.97,SW,220,9.0,13.0,64,-99.99,,,0.01,616.000000,,2013-05-27 02:01:00,
2013-05-26 16:11:00,84.0,70.0,29.97,SW,220,9.0,13.0,64,-99.99,,,0.01,616.000000,,2013-05-27 02:11:00,
2013-05-26 16:32:00,78.0,72.0,29.97,SSE,165,5.0,12.0,82,0.08,,,0.08,158.000000,,2013-05-27 02:32:00,
2013-05-26 16:43:00,78.0,72.0,29.97,SSE,165,5.0,12.0,82,0.08,,,0.08,158.000000,,2013-05-27 02:43:00,
2013-05-26 16:52:00,78.0,72.0,29.97,SSE,165,5.0,12.0,82,0.08,,,0.08,158.000000,,2013-05-27 02:52:00,
2013-05-26 17:02:00,78.0,72.0,29.97,SSE,165,5.0,12.0,82,0.08,,,0.08,158.000000,,2013-05-27 03:02:00,
2013-05-26 17:11:00,78.0,72.0,29.97,SSE,165,5.0,12.0,82,0.08,,,0.08,158.000000,,2013-05-27 03:11:00,
2013-05-26 17:33:00,79.0,70.0,29.97,ESE,106,6.0,10.0,74,0.00,,,0.08,266.000000,,2013-05-27 03:33:00,
2013-05-26 17:43:00,79.0,70.0,29.97,ESE,106,6.0,10.0,74,0.00,,,0.08,266.000000,,2013-05-27 03:43:00,
2013-05-26 17:53:00,79.0,70.0,29.97,ESE,106,6.0,10.0,74,0.00,,,0.08,266.000000,,2013-05-27 03:53:00,
2013-05-26 18:02:00,79.0,70.0,29.97,ESE,106,6.0,10.0,74,0.00,,,0.08,266.000000,,2013-05-27 04:02:00,
2013-05-26 18:12:00,79.0,70.0,29.97,ESE,106,6.0,10.0,74,0.00,,,0.08,266.000000,,2013-05-27 04:12:00,
2013-05-26 18:33:00,79.0,70.0,29.98,SSW,194,4.0,10.0,73,0.00,,,0.08,136.000000,,2013-05-27 04:33:00,
2013-05-26 18:43:00,79.0,70.0,29.98,SSW,194,4.0,10.0,73,0.00,,,0.08,136.000000,,2013-05-27 04:43:00,
2013-05-26 18:52:00,79.0,70.0,29.98,SSW,194,4.0,10.0,73,0.00,,,0.08,136.000000,,2013-05-27 04:52:00,
2013-05-26 19:02:00,79.0,70.0,29.98,SSW,194,4.0,10.0,73,0.00,,,0.08,136.000000,,2013-05-27 05:02:00,
2013-05-26 19:12:00,79.0,70.0,29.98,SSW,194,4.0,10.0,73,0.00,,,0.08,136.000000,,2013-05-27 05:12:00,
2013-05-26 19:32:00,76.0,70.0,30.00,SE,130,4.0,5.0,81,0.00,,,0.08,18.000000,,2013-05-27 05:32:00,
2013-05-26 19:42:00,76.0,70.0,30.00,SE,130,4.0,5.0,81,0.00,,,0.08,18.000000,,2013-05-27 05:42:00,
2013-05-26 19:52:00,76.0,70.0,30.00,SE,130,4.0,5.0,81,0.00,,,0.08,18.000000,,2013-05-27 05:52:00,
2013-05-26 20:01:00,76.0,70.0,30.00,SE,130,4.0,5.0,81,0.00,,,0.08,18.000000,,2013-05-27 06:01:00,
2013-05-26 20:11:00,76.0,70.0,30.00,SE,130,4.0,5.0,81,0.00,,,0.08,18.000000,,2013-05-27 06:11:00,
2013-05-26 20:32:00,74.0,69.0,30.01,ESE,116,3.0,9.0,84,0.00,,,0.08,0.000000,,2013-05-27 06:32:00,
2013-05-26 20:42:00,74.0,69.0,30.01,ESE,116,3.0,9.0,84,0.00,,,0.08,0.000000,,2013-05-27 06:42:00,
2013-05-26 20:52:00,74.0,69.0,30.01,ESE,116,3.0,9.0,84,0.00,,,0.08,0.000000,,2013-05-27 06:52:00,
2013-05-26 21:02:00,74.0,69.0,30.01,ESE,116,3.0,9.0,84,0.00,,,0.08,0.000000,,2013-05-27 07:02:00,
2013-05-26 21:11:00,74.0,69.0,30.01,ESE,116,3.0,9.0,84,0.00,,,0.08,0.000000,,2013-05-27 07:11:00,
2013-05-26 21:32:00,73.0,68.0,30.03,East,87,3.0,7.0,84,0.00,,,0.08,0.000000,,2013-05-27 07:32:00,
2013-05-26 21:42:00,73.0,68.0,30.03,East,87,3.0,7.0,84,0.00,,,0.08,0.000000,,2013-05-27 07:42:00,
2013-05-26 21:52:00,73.0,68.0,30.03,East,87,3.0,7.0,84,0.00,,,0.08,0.000000,,2013-05-27 07:52:00,
2013-05-26 22:02:00,73.0,68.0,30.03,East,87,3.0,7.0,84,0.00,,,0.08,0.000000,,2013-05-27 08:02:00,
2013-05-26 22:11:00,73.0,68.0,30.03,East,87,3.0,7.0,84,0.00,,,0.08,0.000000,,2013-05-27 08:11:00,
2013-05-26 22:33:00,72.0,67.0,30.05,NW,323,5.0,7.0,84,0.00,,,-99.99,0.000000,,2013-05-27 08:33:00,
2013-05-26 22:42:00,72.0,67.0,30.05,NW,323,5.0,7.0,84,0.00,,,-99.99,0.000000,,2013-05-27 08:42:00,
2013-05-26 22:52:00,72.0,67.0,30.05,NW,323,5.0,7.0,84,0.00,,,-99.99,0.000000,,2013-05-27 08:52:00,
2013-05-26 23:02:00,72.0,67.0,30.05,NW,323,5.0,7.0,84,0.00,,,-99.99,0.000000,,2013-05-27 09:02:00,
2013-05-26 23:11:00,72.0,67.0,30.05,NW,323,5.0,7.0,84,0.00,,,-99.99,0.000000,,2013-05-27 09:11:00,
2013-05-26 23:33:00,72.0,66.0,30.05,NE,54,4.0,9.0,81,0.00,,,0.08,0.000000,,2013-05-27 09:33:00,
2013-05-26 23:42:00,72.0,66.0,30.05,NE,54,4.0,9.0,81,0.00,,,0.08,0.000000,,2013-05-27 09:42:00,
2013-05-26 23:53:00,72.0,66.0,30.05,NE,54,4.0,9.0,81,0.00,,,0.08,0.000000,,2013-05-27 09:53:00,